sensor_id;sensor_type;location;lat;lon;timestamp;P1;durP1;ratioP1;P2;durP2;ratioP2
15271;SDS011;7737;51.578;7.268;2023-03-21T00:00:34;15.43;;;9.52;;
15271;SDS011;7737;51.578;7.268;2023-03-21T00:03:02;16.15;;;9.38;;
15271;SDS011;7737;51.578;7.268;2023-03-21T00:05:29;17.50;;;9.27;;
15271;SDS011;7737;51.578;7.268;2023-03-21T00:07:57;16.52;;;8.57;;
15271;SDS011;7737;51.578;7.268;2023-03-21T00:10:24;15.35;;;7.90;;
15271;SDS011;7737;51.578;7.268;2023-03-21T00:12:50;12.73;;;7.90;;
15271;SDS011;7737;51.578;7.268;2023-03-21T00:15:22;18.52;;;8.18;;
15271;SDS011;7737;51.578;7.268;2023-03-21T00:17:50;15.10;;;7.70;;
15271;SDS011;7737;51.578;7.268;2023-03-21T00:20:19;13.68;;;7.40;;
15271;SDS011;7737;51.578;7.268;2023-03-21T00:22:47;17.67;;;8.00;;
15271;SDS011;7737;51.578;7.268;2023-03-21T00:25:14;13.55;;;7.45;;
15271;SDS011;7737;51.578;7.268;2023-03-21T00:27:40;12.63;;;6.70;;
15271;SDS011;7737;51.578;7.268;2023-03-21T00:30:08;16.23;;;7.68;;
15271;SDS011;7737;51.578;7.268;2023-03-21T00:32:36;14.25;;;7.40;;
15271;SDS011;7737;51.578;7.268;2023-03-21T00:35:03;17.58;;;7.82;;
15271;SDS011;7737;51.578;7.268;2023-03-21T00:37:32;15.05;;;7.22;;
15271;SDS011;7737;51.578;7.268;2023-03-21T00:39:58;14.18;;;7.32;;
15271;SDS011;7737;51.578;7.268;2023-03-21T00:42:25;12.00;;;6.95;;
15271;SDS011;7737;51.578;7.268;2023-03-21T00:44:52;14.02;;;7.45;;
15271;SDS011;7737;51.578;7.268;2023-03-21T00:47:18;13.20;;;7.50;;
15271;SDS011;7737;51.578;7.268;2023-03-21T00:49:45;11.82;;;6.80;;
15271;SDS011;7737;51.578;7.268;2023-03-21T00:52:11;14.65;;;6.80;;
15271;SDS011;7737;51.578;7.268;2023-03-21T00:54:39;11.00;;;6.63;;
15271;SDS011;7737;51.578;7.268;2023-03-21T00:57:06;13.82;;;6.80;;
15271;SDS011;7737;51.578;7.268;2023-03-21T00:59:32;14.35;;;6.63;;
15271;SDS011;7737;51.578;7.268;2023-03-21T01:01:59;13.10;;;6.35;;
15271;SDS011;7737;51.578;7.268;2023-03-21T01:04:25;14.75;;;6.30;;
15271;SDS011;7737;51.578;7.268;2023-03-21T01:06:52;12.48;;;6.70;;
15271;SDS011;7737;51.578;7.268;2023-03-21T01:09:20;13.30;;;5.80;;
15271;SDS011;7737;51.578;7.268;2023-03-21T01:11:49;9.50;;;5.95;;
15271;SDS011;7737;51.578;7.268;2023-03-21T01:14:17;14.88;;;5.97;;
15271;SDS011;7737;51.578;7.268;2023-03-21T01:16:45;13.10;;;5.82;;
15271;SDS011;7737;51.578;7.268;2023-03-21T01:19:12;11.88;;;5.85;;
15271;SDS011;7737;51.578;7.268;2023-03-21T01:21:41;10.73;;;5.50;;
15271;SDS011;7737;51.578;7.268;2023-03-21T01:24:08;11.73;;;5.90;;
15271;SDS011;7737;51.578;7.268;2023-03-21T01:26:35;10.23;;;5.35;;
15271;SDS011;7737;51.578;7.268;2023-03-21T01:29:03;11.88;;;5.90;;
15271;SDS011;7737;51.578;7.268;2023-03-21T01:31:30;11.85;;;5.40;;
15271;SDS011;7737;51.578;7.268;2023-03-21T01:33:56;12.57;;;5.60;;
15271;SDS011;7737;51.578;7.268;2023-03-21T01:36:23;11.15;;;5.47;;
15271;SDS011;7737;51.578;7.268;2023-03-21T01:38:51;12.60;;;5.47;;
15271;SDS011;7737;51.578;7.268;2023-03-21T01:41:19;10.55;;;5.45;;
15271;SDS011;7737;51.578;7.268;2023-03-21T01:43:49;12.07;;;5.20;;
15271;SDS011;7737;51.578;7.268;2023-03-21T01:46:24;11.95;;;5.70;;
15271;SDS011;7737;51.578;7.268;2023-03-21T01:49:00;10.48;;;5.22;;
15271;SDS011;7737;51.578;7.268;2023-03-21T01:51:30;10.60;;;5.32;;
15271;SDS011;7737;51.578;7.268;2023-03-21T01:54:01;14.15;;;5.82;;
15271;SDS011;7737;51.578;7.268;2023-03-21T01:56:28;11.40;;;5.97;;
15271;SDS011;7737;51.578;7.268;2023-03-21T01:58:59;12.07;;;6.18;;
15271;SDS011;7737;51.578;7.268;2023-03-21T02:01:32;11.63;;;5.90;;
15271;SDS011;7737;51.578;7.268;2023-03-21T02:04:02;16.02;;;6.72;;
15271;SDS011;7737;51.578;7.268;2023-03-21T02:06:34;11.43;;;6.25;;
15271;SDS011;7737;51.578;7.268;2023-03-21T02:09:08;13.82;;;6.45;;
15271;SDS011;7737;51.578;7.268;2023-03-21T02:11:38;13.18;;;6.68;;
15271;SDS011;7737;51.578;7.268;2023-03-21T02:14:05;12.68;;;6.70;;
15271;SDS011;7737;51.578;7.268;2023-03-21T02:16:40;14.55;;;7.25;;
15271;SDS011;7737;51.578;7.268;2023-03-21T02:19:30;11.43;;;6.97;;
15271;SDS011;7737;51.578;7.268;2023-03-21T02:25:07;15.68;;;7.70;;
15271;SDS011;7737;51.578;7.268;2023-03-21T02:27:57;11.48;;;6.82;;
15271;SDS011;7737;51.578;7.268;2023-03-21T02:30:37;15.57;;;7.28;;
15271;SDS011;7737;51.578;7.268;2023-03-21T02:33:34;12.60;;;7.00;;
15271;SDS011;7737;51.578;7.268;2023-03-21T02:36:22;14.35;;;7.47;;
15271;SDS011;7737;51.578;7.268;2023-03-21T02:38:58;12.50;;;7.95;;
15271;SDS011;7737;51.578;7.268;2023-03-21T02:41:35;14.80;;;8.55;;
15271;SDS011;7737;51.578;7.268;2023-03-21T02:44:15;15.32;;;8.13;;
15271;SDS011;7737;51.578;7.268;2023-03-21T02:46:48;13.68;;;8.00;;
15271;SDS011;7737;51.578;7.268;2023-03-21T02:49:20;12.60;;;7.65;;
15271;SDS011;7737;51.578;7.268;2023-03-21T02:51:50;13.85;;;8.20;;
15271;SDS011;7737;51.578;7.268;2023-03-21T02:54:19;16.00;;;8.27;;
15271;SDS011;7737;51.578;7.268;2023-03-21T02:56:48;15.63;;;8.63;;
15271;SDS011;7737;51.578;7.268;2023-03-21T02:59:18;15.27;;;8.88;;
15271;SDS011;7737;51.578;7.268;2023-03-21T03:01:47;15.40;;;9.13;;
15271;SDS011;7737;51.578;7.268;2023-03-21T03:04:16;20.10;;;10.20;;
15271;SDS011;7737;51.578;7.268;2023-03-21T03:06:45;18.25;;;9.57;;
15271;SDS011;7737;51.578;7.268;2023-03-21T03:09:30;14.98;;;9.63;;
15271;SDS011;7737;51.578;7.268;2023-03-21T03:12:06;18.15;;;8.93;;
15271;SDS011;7737;51.578;7.268;2023-03-21T03:14:45;17.02;;;9.45;;
15271;SDS011;7737;51.578;7.268;2023-03-21T03:17:24;18.20;;;10.15;;
15271;SDS011;7737;51.578;7.268;2023-03-21T03:20:16;17.55;;;10.23;;
15271;SDS011;7737;51.578;7.268;2023-03-21T03:22:51;16.00;;;10.32;;
15271;SDS011;7737;51.578;7.268;2023-03-21T03:25:27;13.52;;;9.65;;
15271;SDS011;7737;51.578;7.268;2023-03-21T03:27:56;17.92;;;9.95;;
15271;SDS011;7737;51.578;7.268;2023-03-21T03:30:24;16.65;;;10.40;;
15271;SDS011;7737;51.578;7.268;2023-03-21T03:32:52;16.88;;;10.45;;
15271;SDS011;7737;51.578;7.268;2023-03-21T03:35:24;18.38;;;10.55;;
15271;SDS011;7737;51.578;7.268;2023-03-21T03:37:52;14.77;;;9.90;;
15271;SDS011;7737;51.578;7.268;2023-03-21T03:40:23;16.08;;;10.23;;
15271;SDS011;7737;51.578;7.268;2023-03-21T03:42:55;15.60;;;9.43;;
15271;SDS011;7737;51.578;7.268;2023-03-21T03:45:27;14.32;;;9.85;;
15271;SDS011;7737;51.578;7.268;2023-03-21T03:48:01;14.93;;;9.38;;
15271;SDS011;7737;51.578;7.268;2023-03-21T03:50:33;18.00;;;9.90;;
15271;SDS011;7737;51.578;7.268;2023-03-21T03:53:06;15.20;;;9.65;;
15271;SDS011;7737;51.578;7.268;2023-03-21T03:55:41;16.77;;;9.63;;
15271;SDS011;7737;51.578;7.268;2023-03-21T03:58:09;16.33;;;10.32;;
15271;SDS011;7737;51.578;7.268;2023-03-21T04:00:36;16.83;;;10.15;;
15271;SDS011;7737;51.578;7.268;2023-03-21T04:03:05;16.60;;;10.00;;
15271;SDS011;7737;51.578;7.268;2023-03-21T04:05:33;14.18;;;9.65;;
15271;SDS011;7737;51.578;7.268;2023-03-21T04:08:00;15.68;;;9.25;;
15271;SDS011;7737;51.578;7.268;2023-03-21T04:10:27;15.07;;;9.48;;
15271;SDS011;7737;51.578;7.268;2023-03-21T04:12:53;14.65;;;10.18;;
15271;SDS011;7737;51.578;7.268;2023-03-21T04:15:21;19.67;;;9.65;;
15271;SDS011;7737;51.578;7.268;2023-03-21T04:17:48;15.90;;;9.07;;
15271;SDS011;7737;51.578;7.268;2023-03-21T04:20:15;16.08;;;9.50;;
15271;SDS011;7737;51.578;7.268;2023-03-21T04:22:42;15.93;;;9.55;;
15271;SDS011;7737;51.578;7.268;2023-03-21T04:25:08;14.05;;;8.93;;
15271;SDS011;7737;51.578;7.268;2023-03-21T04:27:35;14.68;;;9.48;;
15271;SDS011;7737;51.578;7.268;2023-03-21T04:30:02;13.88;;;9.00;;
15271;SDS011;7737;51.578;7.268;2023-03-21T04:32:31;14.57;;;9.30;;
15271;SDS011;7737;51.578;7.268;2023-03-21T04:35:03;13.93;;;8.73;;
15271;SDS011;7737;51.578;7.268;2023-03-21T04:37:30;15.05;;;9.50;;
15271;SDS011;7737;51.578;7.268;2023-03-21T04:39:58;14.40;;;9.05;;
15271;SDS011;7737;51.578;7.268;2023-03-21T04:42:24;14.07;;;8.85;;
15271;SDS011;7737;51.578;7.268;2023-03-21T04:44:51;13.10;;;8.80;;
15271;SDS011;7737;51.578;7.268;2023-03-21T04:47:17;14.45;;;9.25;;
15271;SDS011;7737;51.578;7.268;2023-03-21T04:49:47;13.38;;;9.05;;
15271;SDS011;7737;51.578;7.268;2023-03-21T04:52:13;16.98;;;8.80;;
15271;SDS011;7737;51.578;7.268;2023-03-21T04:54:40;13.88;;;8.95;;
15271;SDS011;7737;51.578;7.268;2023-03-21T04:57:07;17.92;;;8.98;;
15271;SDS011;7737;51.578;7.268;2023-03-21T04:59:33;16.92;;;9.10;;
15271;SDS011;7737;51.578;7.268;2023-03-21T05:02:00;17.65;;;9.70;;
15271;SDS011;7737;51.578;7.268;2023-03-21T05:04:27;17.63;;;9.23;;
15271;SDS011;7737;51.578;7.268;2023-03-21T05:06:55;12.02;;;8.45;;
15271;SDS011;7737;51.578;7.268;2023-03-21T05:09:22;14.40;;;8.77;;
15271;SDS011;7737;51.578;7.268;2023-03-21T05:11:49;12.88;;;8.88;;
15271;SDS011;7737;51.578;7.268;2023-03-21T05:14:17;18.80;;;9.13;;
15271;SDS011;7737;51.578;7.268;2023-03-21T05:16:45;12.93;;;8.52;;
15271;SDS011;7737;51.578;7.268;2023-03-21T05:19:17;13.95;;;8.10;;
15271;SDS011;7737;51.578;7.268;2023-03-21T05:21:44;15.05;;;8.98;;
15271;SDS011;7737;51.578;7.268;2023-03-21T05:24:13;14.77;;;9.13;;
15271;SDS011;7737;51.578;7.268;2023-03-21T05:26:41;13.35;;;9.13;;
15271;SDS011;7737;51.578;7.268;2023-03-21T05:29:09;15.70;;;9.13;;
15271;SDS011;7737;51.578;7.268;2023-03-21T05:31:35;17.67;;;9.02;;
15271;SDS011;7737;51.578;7.268;2023-03-21T05:34:02;17.50;;;9.10;;
15271;SDS011;7737;51.578;7.268;2023-03-21T05:36:29;16.42;;;8.85;;
15271;SDS011;7737;51.578;7.268;2023-03-21T05:38:58;17.15;;;9.75;;
15271;SDS011;7737;51.578;7.268;2023-03-21T05:41:27;15.55;;;9.55;;
15271;SDS011;7737;51.578;7.268;2023-03-21T05:43:53;16.75;;;9.10;;
15271;SDS011;7737;51.578;7.268;2023-03-21T05:46:20;18.60;;;9.70;;
15271;SDS011;7737;51.578;7.268;2023-03-21T05:48:46;15.73;;;9.43;;
15271;SDS011;7737;51.578;7.268;2023-03-21T05:51:13;17.35;;;9.43;;
15271;SDS011;7737;51.578;7.268;2023-03-21T05:53:39;15.15;;;9.00;;
15271;SDS011;7737;51.578;7.268;2023-03-21T05:56:06;15.07;;;9.20;;
15271;SDS011;7737;51.578;7.268;2023-03-21T05:58:35;17.67;;;9.13;;
15271;SDS011;7737;51.578;7.268;2023-03-21T06:01:02;17.15;;;9.65;;
15271;SDS011;7737;51.578;7.268;2023-03-21T06:03:28;15.02;;;8.80;;
15271;SDS011;7737;51.578;7.268;2023-03-21T06:05:55;15.35;;;8.95;;
15271;SDS011;7737;51.578;7.268;2023-03-21T06:08:21;14.50;;;8.88;;
15271;SDS011;7737;51.578;7.268;2023-03-21T06:10:48;14.73;;;9.68;;
15271;SDS011;7737;51.578;7.268;2023-03-21T06:13:14;15.93;;;8.77;;
15271;SDS011;7737;51.578;7.268;2023-03-21T06:15:42;15.18;;;9.63;;
15271;SDS011;7737;51.578;7.268;2023-03-21T06:18:09;16.10;;;9.68;;
15271;SDS011;7737;51.578;7.268;2023-03-21T06:20:35;14.98;;;9.43;;
15271;SDS011;7737;51.578;7.268;2023-03-21T06:23:02;17.33;;;10.45;;
15271;SDS011;7737;51.578;7.268;2023-03-21T06:25:29;15.60;;;9.82;;
15271;SDS011;7737;51.578;7.268;2023-03-21T06:27:55;16.30;;;9.98;;
15271;SDS011;7737;51.578;7.268;2023-03-21T06:30:22;16.02;;;10.05;;
15271;SDS011;7737;51.578;7.268;2023-03-21T06:32:50;16.07;;;10.47;;
15271;SDS011;7737;51.578;7.268;2023-03-21T06:35:17;17.67;;;10.48;;
15271;SDS011;7737;51.578;7.268;2023-03-21T06:37:43;17.08;;;10.77;;
15271;SDS011;7737;51.578;7.268;2023-03-21T06:40:13;15.57;;;10.30;;
15271;SDS011;7737;51.578;7.268;2023-03-21T06:42:40;16.95;;;11.07;;
15271;SDS011;7737;51.578;7.268;2023-03-21T06:45:07;28.00;;;18.30;;
15271;SDS011;7737;51.578;7.268;2023-03-21T06:47:34;38.13;;;24.38;;
15271;SDS011;7737;51.578;7.268;2023-03-21T06:50:02;43.33;;;28.27;;
15271;SDS011;7737;51.578;7.268;2023-03-21T06:52:31;41.53;;;28.67;;
15271;SDS011;7737;51.578;7.268;2023-03-21T06:54:57;30.83;;;19.55;;
15271;SDS011;7737;51.578;7.268;2023-03-21T06:57:24;24.63;;;16.27;;
15271;SDS011;7737;51.578;7.268;2023-03-21T06:59:50;20.88;;;13.50;;
15271;SDS011;7737;51.578;7.268;2023-03-21T07:02:17;21.85;;;13.70;;
15271;SDS011;7737;51.578;7.268;2023-03-21T07:04:43;17.90;;;12.70;;
15271;SDS011;7737;51.578;7.268;2023-03-21T07:07:11;20.63;;;12.90;;
15271;SDS011;7737;51.578;7.268;2023-03-21T07:09:38;20.45;;;12.52;;
15271;SDS011;7737;51.578;7.268;2023-03-21T07:12:05;19.80;;;11.55;;
15271;SDS011;7737;51.578;7.268;2023-03-21T07:14:31;18.05;;;12.65;;
15271;SDS011;7737;51.578;7.268;2023-03-21T07:16:58;20.88;;;12.55;;
15271;SDS011;7737;51.578;7.268;2023-03-21T07:19:25;14.95;;;11.50;;
15271;SDS011;7737;51.578;7.268;2023-03-21T07:21:52;17.67;;;12.77;;
15271;SDS011;7737;51.578;7.268;2023-03-21T07:24:20;18.45;;;11.63;;
15271;SDS011;7737;51.578;7.268;2023-03-21T07:26:46;15.68;;;10.20;;
15271;SDS011;7737;51.578;7.268;2023-03-21T07:29:13;18.40;;;9.88;;
15271;SDS011;7737;51.578;7.268;2023-03-21T07:31:41;15.88;;;10.25;;
15271;SDS011;7737;51.578;7.268;2023-03-21T07:34:08;13.85;;;8.48;;
15271;SDS011;7737;51.578;7.268;2023-03-21T07:36:34;17.15;;;9.43;;
15271;SDS011;7737;51.578;7.268;2023-03-21T07:39:01;11.80;;;8.20;;
15271;SDS011;7737;51.578;7.268;2023-03-21T07:41:29;13.05;;;7.70;;
15271;SDS011;7737;51.578;7.268;2023-03-21T07:43:56;12.93;;;8.50;;
15271;SDS011;7737;51.578;7.268;2023-03-21T07:46:22;14.40;;;9.20;;
15271;SDS011;7737;51.578;7.268;2023-03-21T07:48:49;15.65;;;8.13;;
15271;SDS011;7737;51.578;7.268;2023-03-21T07:51:15;12.48;;;8.27;;
15271;SDS011;7737;51.578;7.268;2023-03-21T07:53:42;16.30;;;9.70;;
15271;SDS011;7737;51.578;7.268;2023-03-21T07:56:12;11.98;;;8.52;;
15271;SDS011;7737;51.578;7.268;2023-03-21T07:58:41;16.90;;;7.90;;
15271;SDS011;7737;51.578;7.268;2023-03-21T08:01:08;12.80;;;7.03;;
15271;SDS011;7737;51.578;7.268;2023-03-21T08:03:35;14.20;;;7.10;;
15271;SDS011;7737;51.578;7.268;2023-03-21T08:06:02;14.88;;;7.43;;
15271;SDS011;7737;51.578;7.268;2023-03-21T08:08:28;14.43;;;7.22;;
15271;SDS011;7737;51.578;7.268;2023-03-21T08:10:55;14.05;;;7.35;;
15271;SDS011;7737;51.578;7.268;2023-03-21T08:13:21;14.07;;;7.60;;
15271;SDS011;7737;51.578;7.268;2023-03-21T08:15:51;13.18;;;7.38;;
15271;SDS011;7737;51.578;7.268;2023-03-21T08:18:17;13.68;;;7.95;;
15271;SDS011;7737;51.578;7.268;2023-03-21T08:20:44;14.52;;;8.43;;
15271;SDS011;7737;51.578;7.268;2023-03-21T08:23:11;14.88;;;7.88;;
15271;SDS011;7737;51.578;7.268;2023-03-21T08:25:37;13.70;;;7.70;;
15271;SDS011;7737;51.578;7.268;2023-03-21T08:28:04;14.45;;;7.90;;
15271;SDS011;7737;51.578;7.268;2023-03-21T08:30:31;14.93;;;7.50;;
15271;SDS011;7737;51.578;7.268;2023-03-21T08:32:59;13.63;;;7.18;;
15271;SDS011;7737;51.578;7.268;2023-03-21T08:35:26;17.05;;;7.80;;
15271;SDS011;7737;51.578;7.268;2023-03-21T08:37:52;14.18;;;8.05;;
15271;SDS011;7737;51.578;7.268;2023-03-21T08:40:19;12.75;;;7.63;;
15271;SDS011;7737;51.578;7.268;2023-03-21T08:42:45;11.57;;;7.05;;
15271;SDS011;7737;51.578;7.268;2023-03-21T08:45:12;12.45;;;6.75;;
15271;SDS011;7737;51.578;7.268;2023-03-21T08:47:40;13.05;;;7.10;;
15271;SDS011;7737;51.578;7.268;2023-03-21T08:50:09;11.10;;;5.97;;
15271;SDS011;7737;51.578;7.268;2023-03-21T08:52:38;12.63;;;6.32;;
15271;SDS011;7737;51.578;7.268;2023-03-21T08:55:05;10.15;;;6.10;;
15271;SDS011;7737;51.578;7.268;2023-03-21T08:57:33;10.73;;;6.28;;
15271;SDS011;7737;51.578;7.268;2023-03-21T08:59:59;16.05;;;5.97;;
15271;SDS011;7737;51.578;7.268;2023-03-21T09:02:26;13.30;;;6.75;;
15271;SDS011;7737;51.578;7.268;2023-03-21T09:04:52;13.85;;;6.32;;
15271;SDS011;7737;51.578;7.268;2023-03-21T09:07:24;13.43;;;5.88;;
15271;SDS011;7737;51.578;7.268;2023-03-21T09:09:51;11.45;;;5.70;;
15271;SDS011;7737;51.578;7.268;2023-03-21T09:12:18;13.20;;;5.82;;
15271;SDS011;7737;51.578;7.268;2023-03-21T09:14:45;11.55;;;5.65;;
15271;SDS011;7737;51.578;7.268;2023-03-21T09:17:11;10.85;;;5.45;;
15271;SDS011;7737;51.578;7.268;2023-03-21T09:19:38;12.05;;;5.70;;
15271;SDS011;7737;51.578;7.268;2023-03-21T09:22:04;9.73;;;5.55;;
15271;SDS011;7737;51.578;7.268;2023-03-21T09:24:36;13.23;;;6.07;;
15271;SDS011;7737;51.578;7.268;2023-03-21T09:27:03;13.05;;;5.50;;
15271;SDS011;7737;51.578;7.268;2023-03-21T09:29:29;11.57;;;5.70;;
15271;SDS011;7737;51.578;7.268;2023-03-21T09:31:56;8.55;;;5.35;;
15271;SDS011;7737;51.578;7.268;2023-03-21T09:34:23;10.30;;;5.55;;
15271;SDS011;7737;51.578;7.268;2023-03-21T09:36:50;9.77;;;5.45;;
15271;SDS011;7737;51.578;7.268;2023-03-21T09:39:21;12.65;;;5.78;;
15271;SDS011;7737;51.578;7.268;2023-03-21T09:41:53;11.60;;;6.30;;
15271;SDS011;7737;51.578;7.268;2023-03-21T09:44:33;9.38;;;5.88;;
15271;SDS011;7737;51.578;7.268;2023-03-21T09:47:10;11.68;;;5.82;;
15271;SDS011;7737;51.578;7.268;2023-03-21T09:49:45;9.50;;;6.00;;
15271;SDS011;7737;51.578;7.268;2023-03-21T09:52:16;10.35;;;5.97;;
15271;SDS011;7737;51.578;7.268;2023-03-21T09:54:47;10.73;;;6.40;;
15271;SDS011;7737;51.578;7.268;2023-03-21T09:57:18;10.43;;;6.43;;
15271;SDS011;7737;51.578;7.268;2023-03-21T09:59:52;9.30;;;6.65;;
15271;SDS011;7737;51.578;7.268;2023-03-21T10:05:12;10.05;;;5.70;;
15271;SDS011;7737;51.578;7.268;2023-03-21T10:07:45;11.75;;;6.10;;
15271;SDS011;7737;51.578;7.268;2023-03-21T10:10:16;9.95;;;6.05;;
15271;SDS011;7737;51.578;7.268;2023-03-21T10:12:47;12.10;;;6.00;;
15271;SDS011;7737;51.578;7.268;2023-03-21T10:15:18;9.73;;;5.88;;
15271;SDS011;7737;51.578;7.268;2023-03-21T10:17:48;10.80;;;6.28;;
15271;SDS011;7737;51.578;7.268;2023-03-21T10:20:20;10.45;;;6.50;;
15271;SDS011;7737;51.578;7.268;2023-03-21T10:22:49;12.80;;;7.10;;
15271;SDS011;7737;51.578;7.268;2023-03-21T10:25:18;13.18;;;6.93;;
15271;SDS011;7737;51.578;7.268;2023-03-21T10:27:47;9.20;;;6.10;;
15271;SDS011;7737;51.578;7.268;2023-03-21T10:30:18;10.75;;;5.80;;
15271;SDS011;7737;51.578;7.268;2023-03-21T10:32:53;10.98;;;5.88;;
15271;SDS011;7737;51.578;7.268;2023-03-21T10:35:22;11.50;;;5.60;;
15271;SDS011;7737;51.578;7.268;2023-03-21T10:37:49;7.35;;;4.78;;
15271;SDS011;7737;51.578;7.268;2023-03-21T10:40:16;8.20;;;5.25;;
15271;SDS011;7737;51.578;7.268;2023-03-21T10:42:43;9.43;;;5.10;;
15271;SDS011;7737;51.578;7.268;2023-03-21T10:45:15;10.23;;;4.55;;
15271;SDS011;7737;51.578;7.268;2023-03-21T10:47:46;10.73;;;4.80;;
15271;SDS011;7737;51.578;7.268;2023-03-21T10:50:14;8.20;;;4.38;;
15271;SDS011;7737;51.578;7.268;2023-03-21T10:52:44;8.18;;;4.05;;
15271;SDS011;7737;51.578;7.268;2023-03-21T10:55:17;7.10;;;3.83;;
15271;SDS011;7737;51.578;7.268;2023-03-21T10:57:51;7.20;;;4.20;;
15271;SDS011;7737;51.578;7.268;2023-03-21T11:00:23;6.47;;;3.70;;
15271;SDS011;7737;51.578;7.268;2023-03-21T11:02:53;6.95;;;3.42;;
15271;SDS011;7737;51.578;7.268;2023-03-21T11:05:21;5.70;;;3.28;;
15271;SDS011;7737;51.578;7.268;2023-03-21T11:07:57;8.77;;;4.10;;
15271;SDS011;7737;51.578;7.268;2023-03-21T11:10:26;6.32;;;3.20;;
15271;SDS011;7737;51.578;7.268;2023-03-21T11:12:55;7.80;;;3.50;;
15271;SDS011;7737;51.578;7.268;2023-03-21T11:15:29;6.93;;;3.20;;
15271;SDS011;7737;51.578;7.268;2023-03-21T11:17:58;6.85;;;4.00;;
15271;SDS011;7737;51.578;7.268;2023-03-21T11:20:40;5.80;;;3.22;;
15271;SDS011;7737;51.578;7.268;2023-03-21T11:23:09;7.05;;;3.17;;
15271;SDS011;7737;51.578;7.268;2023-03-21T11:25:39;6.40;;;3.20;;
15271;SDS011;7737;51.578;7.268;2023-03-21T11:28:08;6.03;;;3.47;;
15271;SDS011;7737;51.578;7.268;2023-03-21T11:30:49;6.85;;;3.28;;
15271;SDS011;7737;51.578;7.268;2023-03-21T11:33:18;7.70;;;3.33;;
15271;SDS011;7737;51.578;7.268;2023-03-21T11:35:56;8.40;;;3.33;;
15271;SDS011;7737;51.578;7.268;2023-03-21T11:38:25;6.35;;;3.67;;
15271;SDS011;7737;51.578;7.268;2023-03-21T11:40:56;7.85;;;3.67;;
15271;SDS011;7737;51.578;7.268;2023-03-21T11:43:25;7.00;;;3.53;;
15271;SDS011;7737;51.578;7.268;2023-03-21T11:45:59;6.63;;;3.40;;
15271;SDS011;7737;51.578;7.268;2023-03-21T11:48:30;6.03;;;3.25;;
15271;SDS011;7737;51.578;7.268;2023-03-21T11:51:03;6.57;;;3.05;;
15271;SDS011;7737;51.578;7.268;2023-03-21T11:53:36;6.55;;;3.33;;
15271;SDS011;7737;51.578;7.268;2023-03-21T11:56:14;7.22;;;4.07;;
15271;SDS011;7737;51.578;7.268;2023-03-21T11:58:55;7.38;;;3.92;;
15271;SDS011;7737;51.578;7.268;2023-03-21T12:01:36;7.55;;;3.58;;
15271;SDS011;7737;51.578;7.268;2023-03-21T12:04:12;6.18;;;3.45;;
15271;SDS011;7737;51.578;7.268;2023-03-21T12:06:46;7.30;;;3.45;;
15271;SDS011;7737;51.578;7.268;2023-03-21T12:09:27;5.72;;;3.00;;
15271;SDS011;7737;51.578;7.268;2023-03-21T12:12:05;5.35;;;3.08;;
15271;SDS011;7737;51.578;7.268;2023-03-21T12:14:44;7.55;;;3.28;;
15271;SDS011;7737;51.578;7.268;2023-03-21T12:17:23;5.90;;;2.92;;
15271;SDS011;7737;51.578;7.268;2023-03-21T12:20:02;7.60;;;3.38;;
15271;SDS011;7737;51.578;7.268;2023-03-21T12:22:40;7.57;;;2.67;;
15271;SDS011;7737;51.578;7.268;2023-03-21T12:25:18;5.10;;;2.67;;
15271;SDS011;7737;51.578;7.268;2023-03-21T12:27:52;4.50;;;2.35;;
15271;SDS011;7737;51.578;7.268;2023-03-21T12:30:31;5.35;;;2.65;;
15271;SDS011;7737;51.578;7.268;2023-03-21T12:33:11;5.53;;;2.80;;
15271;SDS011;7737;51.578;7.268;2023-03-21T12:36:07;5.00;;;2.72;;
15271;SDS011;7737;51.578;7.268;2023-03-21T12:38:48;4.53;;;2.33;;
15271;SDS011;7737;51.578;7.268;2023-03-21T12:41:27;4.57;;;2.28;;
15271;SDS011;7737;51.578;7.268;2023-03-21T12:43:59;5.72;;;2.65;;
15271;SDS011;7737;51.578;7.268;2023-03-21T12:46:31;3.95;;;2.47;;
15271;SDS011;7737;51.578;7.268;2023-03-21T12:49:06;8.85;;;3.50;;
15271;SDS011;7737;51.578;7.268;2023-03-21T12:51:36;6.78;;;3.28;;
15271;SDS011;7737;51.578;7.268;2023-03-21T12:54:09;4.72;;;2.50;;
15271;SDS011;7737;51.578;7.268;2023-03-21T12:56:44;4.32;;;2.53;;
15271;SDS011;7737;51.578;7.268;2023-03-21T12:59:17;4.40;;;2.45;;
15271;SDS011;7737;51.578;7.268;2023-03-21T13:01:50;4.13;;;2.40;;
15271;SDS011;7737;51.578;7.268;2023-03-21T13:04:30;5.68;;;2.67;;
15271;SDS011;7737;51.578;7.268;2023-03-21T13:07:01;5.00;;;2.35;;
15271;SDS011;7737;51.578;7.268;2023-03-21T13:09:33;5.97;;;2.28;;
15271;SDS011;7737;51.578;7.268;2023-03-21T13:12:02;4.78;;;2.55;;
15271;SDS011;7737;51.578;7.268;2023-03-21T13:14:39;3.88;;;2.35;;
15271;SDS011;7737;51.578;7.268;2023-03-21T13:17:12;3.50;;;2.10;;
15271;SDS011;7737;51.578;7.268;2023-03-21T13:19:50;4.78;;;2.30;;
15271;SDS011;7737;51.578;7.268;2023-03-21T13:22:23;4.88;;;2.13;;
15271;SDS011;7737;51.578;7.268;2023-03-21T13:24:56;3.15;;;2.28;;
15271;SDS011;7737;51.578;7.268;2023-03-21T13:27:25;4.97;;;2.20;;
15271;SDS011;7737;51.578;7.268;2023-03-21T13:29:57;4.65;;;2.60;;
15271;SDS011;7737;51.578;7.268;2023-03-21T13:32:27;5.25;;;2.55;;
15271;SDS011;7737;51.578;7.268;2023-03-21T13:34:57;5.22;;;2.33;;
15271;SDS011;7737;51.578;7.268;2023-03-21T13:37:26;3.75;;;2.28;;
15271;SDS011;7737;51.578;7.268;2023-03-21T13:40:00;3.85;;;2.40;;
15271;SDS011;7737;51.578;7.268;2023-03-21T13:42:33;4.07;;;2.22;;
15271;SDS011;7737;51.578;7.268;2023-03-21T13:45:00;5.18;;;2.30;;
15271;SDS011;7737;51.578;7.268;2023-03-21T13:47:36;4.78;;;2.40;;
15271;SDS011;7737;51.578;7.268;2023-03-21T13:50:16;6.57;;;2.60;;
15271;SDS011;7737;51.578;7.268;2023-03-21T13:53:10;3.95;;;2.45;;
15271;SDS011;7737;51.578;7.268;2023-03-21T13:55:56;3.70;;;2.15;;
15271;SDS011;7737;51.578;7.268;2023-03-21T13:58:33;4.95;;;2.30;;
15271;SDS011;7737;51.578;7.268;2023-03-21T14:01:13;5.72;;;2.65;;
15271;SDS011;7737;51.578;7.268;2023-03-21T14:03:47;6.93;;;3.40;;
15271;SDS011;7737;51.578;7.268;2023-03-21T14:06:16;3.95;;;2.83;;
15271;SDS011;7737;51.578;7.268;2023-03-21T14:08:44;4.63;;;2.55;;
15271;SDS011;7737;51.578;7.268;2023-03-21T14:11:13;7.82;;;2.67;;
15271;SDS011;7737;51.578;7.268;2023-03-21T14:13:42;4.40;;;2.63;;
15271;SDS011;7737;51.578;7.268;2023-03-21T14:16:11;3.47;;;2.30;;
15271;SDS011;7737;51.578;7.268;2023-03-21T14:18:41;4.25;;;2.42;;
15271;SDS011;7737;51.578;7.268;2023-03-21T14:21:18;4.45;;;2.10;;
15271;SDS011;7737;51.578;7.268;2023-03-21T14:23:46;4.05;;;2.13;;
15271;SDS011;7737;51.578;7.268;2023-03-21T14:26:20;4.38;;;2.30;;
15271;SDS011;7737;51.578;7.268;2023-03-21T14:28:48;4.22;;;2.05;;
15271;SDS011;7737;51.578;7.268;2023-03-21T14:31:17;3.72;;;2.50;;
15271;SDS011;7737;51.578;7.268;2023-03-21T14:33:45;3.13;;;2.20;;
15271;SDS011;7737;51.578;7.268;2023-03-21T14:36:19;5.60;;;2.38;;
15271;SDS011;7737;51.578;7.268;2023-03-21T14:38:53;3.50;;;2.00;;
15271;SDS011;7737;51.578;7.268;2023-03-21T14:41:21;3.53;;;2.10;;
15271;SDS011;7737;51.578;7.268;2023-03-21T14:46:38;3.72;;;2.25;;
15271;SDS011;7737;51.578;7.268;2023-03-21T14:49:09;5.50;;;2.33;;
15271;SDS011;7737;51.578;7.268;2023-03-21T14:51:44;3.58;;;2.28;;
15271;SDS011;7737;51.578;7.268;2023-03-21T14:54:13;4.82;;;2.72;;
15271;SDS011;7737;51.578;7.268;2023-03-21T14:56:43;3.25;;;2.35;;
15271;SDS011;7737;51.578;7.268;2023-03-21T14:59:13;4.15;;;2.38;;
15271;SDS011;7737;51.578;7.268;2023-03-21T15:01:41;4.20;;;2.65;;
15271;SDS011;7737;51.578;7.268;2023-03-21T15:04:11;7.15;;;2.83;;
15271;SDS011;7737;51.578;7.268;2023-03-21T15:06:51;3.47;;;2.10;;
15271;SDS011;7737;51.578;7.268;2023-03-21T15:09:21;4.57;;;2.58;;
15271;SDS011;7737;51.578;7.268;2023-03-21T15:11:51;3.92;;;2.30;;
15271;SDS011;7737;51.578;7.268;2023-03-21T15:14:22;4.10;;;2.53;;
15271;SDS011;7737;51.578;7.268;2023-03-21T15:16:51;4.75;;;2.15;;